»·PEaware :: N448CR KPSP-KSAN

N448CR :: KPSP-KSAN

FLIGHT INFORMATION

Flight Status: Arrived
Operator: Privately registered:
United States
More flights under this callsign
Pilot: Daniel D. (10930)
Aircraft: BEECH AIRCRAFT A90-E90 KING AIR
(BE9L)
More flights by this aircraft type
Origin: KPSP Palm Springs Intl
United States
Destination: KSAN San Diego Intl-Lindbergh
United States
More flights between these airports :: More routes between these airports
Route: +CATH1 PSP TRM V514 MZB
File this flight plan on PilotEdge
Remarks:
Altitude:
(Current/Filed)
18,000ft
Speed:
(Current/Filed)
260kts
Departed: 16-Jul-20 05:45 PM
Arrived: 16-Jul-20 06:25 PM
Distance/Time
Traveled:
74nm/0:39
Distance/Time
To Go:
Arrived

Flight Plot

Page will automatically refresh every two minutes.


Map Options




Map Legend


Flown Route
Filed Route
Departure Airport
Arrival Airport
Navaid (VOR, NDB)
Fix

Horizontal Profiles

Position Reports

Time Latitude Longitude Heading Altitude Ground
Speed
16-Jul-20 17:30 33.822493 -116.495984 233 481ft 0kts
16-Jul-20 17:31 33.822493 -116.495984 233 481ft 0kts
16-Jul-20 17:32 33.822493 -116.495984 233 481ft 0kts
16-Jul-20 17:33 33.822493 -116.495984 233 481ft 0kts
16-Jul-20 17:34 33.822493 -116.495984 233 481ft 0kts
16-Jul-20 17:35 33.822493 -116.495984 232 481ft 0kts
16-Jul-20 17:36 33.822493 -116.495984 232 481ft 0kts
16-Jul-20 17:37 33.822493 -116.495984 232 481ft 0kts
16-Jul-20 17:38 33.822108 -116.496568 231 481ft 10kts
16-Jul-20 17:39 33.824080 -116.498615 331 481ft 1kts
16-Jul-20 17:40 33.824673 -116.499462 238 481ft 0kts
16-Jul-20 17:41 33.824672 -116.499463 240 481ft 0kts
16-Jul-20 17:42 33.824579 -116.499642 231 481ft 0kts
16-Jul-20 17:43 33.824464 -116.500166 327 481ft 0kts
16-Jul-20 17:44 33.838384 -116.512699 320 1125ft 100kts
16-Jul-20 17:45 33.863366 -116.532286 321 2477ft 121kts
16-Jul-20 17:46 33.892160 -116.556135 323 3962ft 136kts
16-Jul-20 17:47 33.909112 -116.532384 126 5311ft 124kts
16-Jul-20 17:48 33.889432 -116.497833 132 6617ft 125kts
16-Jul-20 17:49 33.869566 -116.461451 131 7895ft 133kts
16-Jul-20 17:50 33.846387 -116.427151 141 9182ft 131kts
16-Jul-20 17:51 33.820583 -116.395498 138 10386ft 133kts
16-Jul-20 17:52 33.794369 -116.363242 138 11494ft 136kts
16-Jul-20 17:53 33.767381 -116.330279 138 12546ft 139kts
16-Jul-20 17:54 33.737902 -116.294588 138 13006ft 173kts
16-Jul-20 17:55 33.701355 -116.250460 137 13000ft 193kts
16-Jul-20 17:56 33.663713 -116.204602 137 13473ft 178kts
16-Jul-20 17:57 33.624587 -116.171705 182 13947ft 173kts
16-Jul-20 17:58 33.583320 -116.199990 216 14403ft 172kts
16-Jul-20 18:00 33.544624 -116.234475 215 14830ft 172kts
16-Jul-20 18:01 33.505536 -116.268761 215 15261ft 172kts
16-Jul-20 18:02 33.467168 -116.302321 215 15717ft 169kts
16-Jul-20 18:03 33.428712 -116.335949 215 16000ft 176kts
16-Jul-20 18:04 33.387297 -116.372307 215 15999ft 189kts
16-Jul-20 18:05 33.344182 -116.410039 215 15998ft 193kts
16-Jul-20 18:06 33.300493 -116.448705 215 15998ft 195kts
16-Jul-20 18:07 33.256468 -116.487384 215 15967ft 197kts
16-Jul-20 18:08 33.206346 -116.531766 216 14408ft 242kts
16-Jul-20 18:09 33.150355 -116.581094 212 12768ft 252kts
16-Jul-20 18:10 33.083021 -116.595400 185 11779ft 232kts
16-Jul-20 18:11 33.015563 -116.602472 186 10136ft 248kts
16-Jul-20 18:12 32.947598 -116.609511 186 9039ft 236kts
16-Jul-20 18:13 32.885657 -116.615730 186 8996ft 214kts
16-Jul-20 18:13 32.832380 -116.621073 186 7908ft 238kts
16-Jul-20 18:15 32.763962 -116.650329 229 7012ft 227kts
16-Jul-20 18:16 32.721118 -116.707632 228 6152ft 231kts
16-Jul-20 18:16 32.694074 -116.760194 242 5997ft 217kts
16-Jul-20 18:17 32.676385 -116.826938 268 6047ft 211kts
16-Jul-20 18:19 32.682553 -116.910161 275 5895ft 215kts
16-Jul-20 18:19 32.684166 -116.971612 277 5021ft 220kts
16-Jul-20 18:20 32.698301 -117.040805 288 3902ft 215kts
16-Jul-20 18:21 32.712613 -117.102367 285 2264ft 180kts
16-Jul-20 18:22 32.724633 -117.152732 286 777ft 124kts
16-Jul-20 18:23 32.732046 -117.183429 285 20ft 55kts
16-Jul-20 18:24 32.734144 -117.187860 52 20ft 0kts
16-Jul-20 18:25 32.733669 -117.185438 106 20ft 27kts
16-Jul-20 18:26 32.733122 -117.179612 16 20ft 7kts
16-Jul-20 18:27 32.733485 -117.178876 19 20ft 0kts

Navigation Log

Ident Type
Flight plan parsing failed, navigation log unavailable